sensor_id;sensor_type;location;lat;lon;timestamp;temperature;humidity
23731;DHT22;12046;44.702;10.622;2023-04-24T00:00:04;18.90;82.30
23731;DHT22;12046;44.702;10.622;2023-04-24T00:02:35;18.80;82.40
23731;DHT22;12046;44.702;10.622;2023-04-24T00:05:06;18.70;82.60
23731;DHT22;12046;44.702;10.622;2023-04-24T00:07:33;18.70;82.80
23731;DHT22;12046;44.702;10.622;2023-04-24T00:09:59;18.60;83.00
23731;DHT22;12046;44.702;10.622;2023-04-24T00:12:26;18.60;83.20
23731;DHT22;12046;44.702;10.622;2023-04-24T00:14:52;18.50;83.40
23731;DHT22;12046;44.702;10.622;2023-04-24T00:17:18;18.50;83.60
23731;DHT22;12046;44.702;10.622;2023-04-24T00:19:47;18.50;83.80
23731;DHT22;12046;44.702;10.622;2023-04-24T00:22:12;18.50;84.00
23731;DHT22;12046;44.702;10.622;2023-04-24T00:24:41;18.50;84.20
23731;DHT22;12046;44.702;10.622;2023-04-24T00:27:06;18.50;84.60
23731;DHT22;12046;44.702;10.622;2023-04-24T00:29:32;18.50;85.00
23731;DHT22;12046;44.702;10.622;2023-04-24T00:31:58;18.40;85.40
23731;DHT22;12046;44.702;10.622;2023-04-24T00:34:23;18.40;86.10
23731;DHT22;12046;44.702;10.622;2023-04-24T00:36:49;18.30;86.80
23731;DHT22;12046;44.702;10.622;2023-04-24T00:39:21;18.30;87.60
23731;DHT22;12046;44.702;10.622;2023-04-24T00:41:48;18.20;88.50
23731;DHT22;12046;44.702;10.622;2023-04-24T00:44:14;18.20;89.80
23731;DHT22;12046;44.702;10.622;2023-04-24T00:46:41;18.20;90.40
23731;DHT22;12046;44.702;10.622;2023-04-24T00:49:07;18.10;90.80
23731;DHT22;12046;44.702;10.622;2023-04-24T00:51:33;18.00;91.20
23731;DHT22;12046;44.702;10.622;2023-04-24T00:54:00;17.90;91.70
23731;DHT22;12046;44.702;10.622;2023-04-24T00:56:26;17.70;92.00
23731;DHT22;12046;44.702;10.622;2023-04-24T00:58:53;17.60;92.50
23731;DHT22;12046;44.702;10.622;2023-04-24T01:01:20;17.60;92.90
23731;DHT22;12046;44.702;10.622;2023-04-24T01:03:46;17.50;93.30
23731;DHT22;12046;44.702;10.622;2023-04-24T01:06:13;17.50;93.70
23731;DHT22;12046;44.702;10.622;2023-04-24T01:08:39;17.50;94.00
23731;DHT22;12046;44.702;10.622;2023-04-24T01:11:06;17.50;94.30
23731;DHT22;12046;44.702;10.622;2023-04-24T01:13:33;17.50;94.60
23731;DHT22;12046;44.702;10.622;2023-04-24T01:15:59;17.50;94.90
23731;DHT22;12046;44.702;10.622;2023-04-24T01:18:26;17.50;95.30
23731;DHT22;12046;44.702;10.622;2023-04-24T01:20:54;17.40;95.70
23731;DHT22;12046;44.702;10.622;2023-04-24T01:23:22;17.40;96.10
23731;DHT22;12046;44.702;10.622;2023-04-24T01:25:49;17.30;96.40
23731;DHT22;12046;44.702;10.622;2023-04-24T01:28:16;17.30;96.90
23731;DHT22;12046;44.702;10.622;2023-04-24T01:30:42;17.20;97.70
23731;DHT22;12046;44.702;10.622;2023-04-24T01:33:08;17.20;97.90
23731;DHT22;12046;44.702;10.622;2023-04-24T01:35:34;17.20;98.40
23731;DHT22;12046;44.702;10.622;2023-04-24T01:38:01;17.10;98.90
23731;DHT22;12046;44.702;10.622;2023-04-24T01:40:27;17.10;99.40
23731;DHT22;12046;44.702;10.622;2023-04-24T01:42:53;17.00;99.80
23731;DHT22;12046;44.702;10.622;2023-04-24T01:45:19;17.00;99.90
23731;DHT22;12046;44.702;10.622;2023-04-24T01:47:45;17.00;99.90
23731;DHT22;12046;44.702;10.622;2023-04-24T01:50:12;17.00;99.90
23731;DHT22;12046;44.702;10.622;2023-04-24T01:52:38;16.90;99.90
23731;DHT22;12046;44.702;10.622;2023-04-24T01:55:04;16.90;99.90
23731;DHT22;12046;44.702;10.622;2023-04-24T01:57:31;16.80;99.90
23731;DHT22;12046;44.702;10.622;2023-04-24T01:59:57;16.70;99.90
23731;DHT22;12046;44.702;10.622;2023-04-24T02:02:23;16.70;99.90
23731;DHT22;12046;44.702;10.622;2023-04-24T02:04:55;16.60;99.90
23731;DHT22;12046;44.702;10.622;2023-04-24T02:07:21;16.50;99.90
23731;DHT22;12046;44.702;10.622;2023-04-24T02:09:47;16.40;99.90
23731;DHT22;12046;44.702;10.622;2023-04-24T02:12:14;16.30;99.90
23731;DHT22;12046;44.702;10.622;2023-04-24T02:14:40;16.30;99.90
23731;DHT22;12046;44.702;10.622;2023-04-24T02:17:06;16.20;99.90
23731;DHT22;12046;44.702;10.622;2023-04-24T02:19:32;16.20;99.90
23731;DHT22;12046;44.702;10.622;2023-04-24T02:21:57;16.20;99.90
23731;DHT22;12046;44.702;10.622;2023-04-24T02:24:23;16.10;99.90
23731;DHT22;12046;44.702;10.622;2023-04-24T02:26:49;16.10;99.90
23731;DHT22;12046;44.702;10.622;2023-04-24T02:29:14;16.10;99.90
23731;DHT22;12046;44.702;10.622;2023-04-24T02:31:40;16.10;99.90
23731;DHT22;12046;44.702;10.622;2023-04-24T02:34:06;16.10;99.90
23731;DHT22;12046;44.702;10.622;2023-04-24T02:36:32;16.10;99.90
23731;DHT22;12046;44.702;10.622;2023-04-24T02:38:57;16.10;99.90
23731;DHT22;12046;44.702;10.622;2023-04-24T02:41:23;16.20;99.90
23731;DHT22;12046;44.702;10.622;2023-04-24T02:43:49;16.20;99.90
23731;DHT22;12046;44.702;10.622;2023-04-24T02:46:15;16.30;99.90
23731;DHT22;12046;44.702;10.622;2023-04-24T02:48:40;16.30;99.90
23731;DHT22;12046;44.702;10.622;2023-04-24T02:51:06;16.40;99.90
23731;DHT22;12046;44.702;10.622;2023-04-24T02:53:32;16.40;99.90
23731;DHT22;12046;44.702;10.622;2023-04-24T02:55:58;16.40;99.90
23731;DHT22;12046;44.702;10.622;2023-04-24T02:58:24;16.40;99.90
23731;DHT22;12046;44.702;10.622;2023-04-24T03:00:54;16.40;99.90
23731;DHT22;12046;44.702;10.622;2023-04-24T03:03:21;16.30;99.90
23731;DHT22;12046;44.702;10.622;2023-04-24T03:05:47;16.30;99.90
23731;DHT22;12046;44.702;10.622;2023-04-24T03:08:12;16.20;99.90
23731;DHT22;12046;44.702;10.622;2023-04-24T03:10:40;16.10;99.90
23731;DHT22;12046;44.702;10.622;2023-04-24T03:13:05;16.00;99.90
23731;DHT22;12046;44.702;10.622;2023-04-24T03:15:31;15.90;99.90
23731;DHT22;12046;44.702;10.622;2023-04-24T03:17:57;15.90;99.90
23731;DHT22;12046;44.702;10.622;2023-04-24T03:20:23;15.90;99.90
23731;DHT22;12046;44.702;10.622;2023-04-24T03:22:49;15.80;99.90
23731;DHT22;12046;44.702;10.622;2023-04-24T03:25:14;15.80;99.90
23731;DHT22;12046;44.702;10.622;2023-04-24T03:27:40;15.80;99.90
23731;DHT22;12046;44.702;10.622;2023-04-24T03:30:07;15.80;99.90
23731;DHT22;12046;44.702;10.622;2023-04-24T03:32:33;15.70;99.90
23731;DHT22;12046;44.702;10.622;2023-04-24T03:34:59;15.70;99.90
23731;DHT22;12046;44.702;10.622;2023-04-24T03:37:25;15.70;99.90
23731;DHT22;12046;44.702;10.622;2023-04-24T03:39:51;15.70;99.90
23731;DHT22;12046;44.702;10.622;2023-04-24T03:42:17;15.80;99.90
23731;DHT22;12046;44.702;10.622;2023-04-24T03:44:43;15.80;99.90
23731;DHT22;12046;44.702;10.622;2023-04-24T03:47:09;15.80;99.90
23731;DHT22;12046;44.702;10.622;2023-04-24T03:49:35;15.80;99.90
23731;DHT22;12046;44.702;10.622;2023-04-24T03:52:01;15.80;99.90
23731;DHT22;12046;44.702;10.622;2023-04-24T03:54:27;15.80;99.90
23731;DHT22;12046;44.702;10.622;2023-04-24T03:56:52;15.80;99.90
23731;DHT22;12046;44.702;10.622;2023-04-24T03:59:18;15.80;99.90
23731;DHT22;12046;44.702;10.622;2023-04-24T04:01:44;15.80;99.90
23731;DHT22;12046;44.702;10.622;2023-04-24T04:04:11;15.80;99.90
23731;DHT22;12046;44.702;10.622;2023-04-24T04:06:36;15.80;99.90
23731;DHT22;12046;44.702;10.622;2023-04-24T04:09:02;15.70;99.90
23731;DHT22;12046;44.702;10.622;2023-04-24T04:11:29;15.70;99.90
23731;DHT22;12046;44.702;10.622;2023-04-24T04:13:55;15.60;99.90
23731;DHT22;12046;44.702;10.622;2023-04-24T04:16:22;15.60;99.90
23731;DHT22;12046;44.702;10.622;2023-04-24T04:18:48;15.60;99.90
23731;DHT22;12046;44.702;10.622;2023-04-24T04:21:14;15.50;99.90
23731;DHT22;12046;44.702;10.622;2023-04-24T04:23:40;15.50;99.90
23731;DHT22;12046;44.702;10.622;2023-04-24T04:26:06;15.50;99.90
23731;DHT22;12046;44.702;10.622;2023-04-24T04:28:32;15.50;99.90
23731;DHT22;12046;44.702;10.622;2023-04-24T04:30:57;15.50;99.90
23731;DHT22;12046;44.702;10.622;2023-04-24T04:33:24;15.40;99.90
23731;DHT22;12046;44.702;10.622;2023-04-24T04:35:50;15.40;99.90
23731;DHT22;12046;44.702;10.622;2023-04-24T04:38:22;15.30;99.90
23731;DHT22;12046;44.702;10.622;2023-04-24T04:40:48;15.30;99.90
23731;DHT22;12046;44.702;10.622;2023-04-24T04:43:14;15.30;99.90
23731;DHT22;12046;44.702;10.622;2023-04-24T04:45:43;15.30;99.90
23731;DHT22;12046;44.702;10.622;2023-04-24T04:48:09;15.20;99.90
23731;DHT22;12046;44.702;10.622;2023-04-24T04:50:37;15.20;99.90
23731;DHT22;12046;44.702;10.622;2023-04-24T04:53:03;15.30;99.90
23731;DHT22;12046;44.702;10.622;2023-04-24T04:55:29;15.30;99.90
23731;DHT22;12046;44.702;10.622;2023-04-24T04:57:55;15.20;99.90
23731;DHT22;12046;44.702;10.622;2023-04-24T05:00:22;15.20;99.90
23731;DHT22;12046;44.702;10.622;2023-04-24T05:02:50;15.20;99.90
23731;DHT22;12046;44.702;10.622;2023-04-24T05:05:16;15.10;99.90
23731;DHT22;12046;44.702;10.622;2023-04-24T05:07:43;15.10;99.90
23731;DHT22;12046;44.702;10.622;2023-04-24T05:10:09;15.10;99.90
23731;DHT22;12046;44.702;10.622;2023-04-24T05:12:36;15.10;99.90
23731;DHT22;12046;44.702;10.622;2023-04-24T05:15:02;15.10;99.90
23731;DHT22;12046;44.702;10.622;2023-04-24T05:17:28;15.10;99.90
23731;DHT22;12046;44.702;10.622;2023-04-24T05:19:54;15.10;99.90
23731;DHT22;12046;44.702;10.622;2023-04-24T05:22:20;15.10;99.90
23731;DHT22;12046;44.702;10.622;2023-04-24T05:24:46;15.10;99.90
23731;DHT22;12046;44.702;10.622;2023-04-24T05:27:12;15.10;99.90
23731;DHT22;12046;44.702;10.622;2023-04-24T05:29:38;15.00;99.90
23731;DHT22;12046;44.702;10.622;2023-04-24T05:32:04;15.00;99.90
23731;DHT22;12046;44.702;10.622;2023-04-24T05:34:30;15.00;99.90
23731;DHT22;12046;44.702;10.622;2023-04-24T05:36:56;15.00;99.90
23731;DHT22;12046;44.702;10.622;2023-04-24T05:39:21;15.00;99.90
23731;DHT22;12046;44.702;10.622;2023-04-24T05:41:47;15.10;99.90
23731;DHT22;12046;44.702;10.622;2023-04-24T05:44:13;15.10;99.90
23731;DHT22;12046;44.702;10.622;2023-04-24T05:46:39;15.00;99.90
23731;DHT22;12046;44.702;10.622;2023-04-24T05:49:05;15.10;99.90
23731;DHT22;12046;44.702;10.622;2023-04-24T05:51:31;15.00;99.90
23731;DHT22;12046;44.702;10.622;2023-04-24T05:53:57;15.00;99.90
23731;DHT22;12046;44.702;10.622;2023-04-24T05:56:23;15.00;99.90
23731;DHT22;12046;44.702;10.622;2023-04-24T05:58:49;15.00;99.90
23731;DHT22;12046;44.702;10.622;2023-04-24T06:01:14;15.00;99.90
23731;DHT22;12046;44.702;10.622;2023-04-24T06:03:41;15.00;99.90
23731;DHT22;12046;44.702;10.622;2023-04-24T06:06:07;14.90;99.90
23731;DHT22;12046;44.702;10.622;2023-04-24T06:08:34;14.90;99.90
23731;DHT22;12046;44.702;10.622;2023-04-24T06:10:59;14.80;99.90
23731;DHT22;12046;44.702;10.622;2023-04-24T06:13:25;14.80;99.90
23731;DHT22;12046;44.702;10.622;2023-04-24T06:15:53;14.70;99.90
23731;DHT22;12046;44.702;10.622;2023-04-24T06:18:19;14.70;99.90
23731;DHT22;12046;44.702;10.622;2023-04-24T06:20:45;14.70;99.90
23731;DHT22;12046;44.702;10.622;2023-04-24T06:23:11;14.70;99.90
23731;DHT22;12046;44.702;10.622;2023-04-24T06:25:37;14.70;99.90
23731;DHT22;12046;44.702;10.622;2023-04-24T06:28:03;14.80;99.90
23731;DHT22;12046;44.702;10.622;2023-04-24T06:30:29;15.00;99.90
23731;DHT22;12046;44.702;10.622;2023-04-24T06:32:55;15.10;99.90
23731;DHT22;12046;44.702;10.622;2023-04-24T06:35:20;15.30;99.90
23731;DHT22;12046;44.702;10.622;2023-04-24T06:37:46;15.40;99.90
23731;DHT22;12046;44.702;10.622;2023-04-24T06:40:12;15.60;99.90
23731;DHT22;12046;44.702;10.622;2023-04-24T06:42:38;15.90;99.90
23731;DHT22;12046;44.702;10.622;2023-04-24T06:45:04;16.10;99.90
23731;DHT22;12046;44.702;10.622;2023-04-24T06:47:31;16.30;99.90
23731;DHT22;12046;44.702;10.622;2023-04-24T06:49:56;16.50;99.90
23731;DHT22;12046;44.702;10.622;2023-04-24T06:52:22;16.70;99.90
23731;DHT22;12046;44.702;10.622;2023-04-24T06:54:48;17.00;99.90
23731;DHT22;12046;44.702;10.622;2023-04-24T06:57:14;17.20;99.90
23731;DHT22;12046;44.702;10.622;2023-04-24T06:59:41;17.40;99.90
23731;DHT22;12046;44.702;10.622;2023-04-24T07:02:07;17.60;99.90
23731;DHT22;12046;44.702;10.622;2023-04-24T07:04:33;17.80;99.90
23731;DHT22;12046;44.702;10.622;2023-04-24T07:06:59;18.00;99.90
23731;DHT22;12046;44.702;10.622;2023-04-24T07:09:26;18.10;99.90
23731;DHT22;12046;44.702;10.622;2023-04-24T07:11:52;18.30;99.90
23731;DHT22;12046;44.702;10.622;2023-04-24T07:14:18;18.40;99.90
23731;DHT22;12046;44.702;10.622;2023-04-24T07:16:44;18.60;99.90
23731;DHT22;12046;44.702;10.622;2023-04-24T07:19:11;18.70;99.90
23731;DHT22;12046;44.702;10.622;2023-04-24T07:21:36;18.80;99.90
23731;DHT22;12046;44.702;10.622;2023-04-24T07:24:02;18.80;99.90
23731;DHT22;12046;44.702;10.622;2023-04-24T07:26:31;18.90;99.90
23731;DHT22;12046;44.702;10.622;2023-04-24T07:28:57;18.90;99.90
23731;DHT22;12046;44.702;10.622;2023-04-24T07:31:23;19.00;99.90
23731;DHT22;12046;44.702;10.622;2023-04-24T07:33:48;18.90;99.90
23731;DHT22;12046;44.702;10.622;2023-04-24T07:36:15;19.00;99.90
23731;DHT22;12046;44.702;10.622;2023-04-24T07:38:45;19.00;99.90
23731;DHT22;12046;44.702;10.622;2023-04-24T07:41:11;19.00;99.90
23731;DHT22;12046;44.702;10.622;2023-04-24T07:43:37;19.10;99.90
23731;DHT22;12046;44.702;10.622;2023-04-24T07:46:02;19.20;99.90
23731;DHT22;12046;44.702;10.622;2023-04-24T07:48:28;19.30;99.90
23731;DHT22;12046;44.702;10.622;2023-04-24T07:50:54;19.40;99.90
23731;DHT22;12046;44.702;10.622;2023-04-24T07:53:20;19.50;99.90
23731;DHT22;12046;44.702;10.622;2023-04-24T07:55:46;19.60;99.90
23731;DHT22;12046;44.702;10.622;2023-04-24T07:58:12;19.60;99.90
23731;DHT22;12046;44.702;10.622;2023-04-24T08:00:37;19.60;99.90
23731;DHT22;12046;44.702;10.622;2023-04-24T08:03:03;19.60;99.90
23731;DHT22;12046;44.702;10.622;2023-04-24T08:05:29;19.50;99.90
23731;DHT22;12046;44.702;10.622;2023-04-24T08:07:56;19.50;99.90
23731;DHT22;12046;44.702;10.622;2023-04-24T08:10:22;19.50;99.90
23731;DHT22;12046;44.702;10.622;2023-04-24T08:12:48;19.60;99.90
23731;DHT22;12046;44.702;10.622;2023-04-24T08:15:14;19.60;99.90
23731;DHT22;12046;44.702;10.622;2023-04-24T08:17:40;19.60;99.90
23731;DHT22;12046;44.702;10.622;2023-04-24T08:20:07;19.70;99.90
23731;DHT22;12046;44.702;10.622;2023-04-24T08:22:39;19.80;99.90
23731;DHT22;12046;44.702;10.622;2023-04-24T08:25:06;19.90;99.90
23731;DHT22;12046;44.702;10.622;2023-04-24T08:27:35;20.00;99.90
23731;DHT22;12046;44.702;10.622;2023-04-24T08:30:03;20.20;99.90
23731;DHT22;12046;44.702;10.622;2023-04-24T08:32:29;20.30;99.90
23731;DHT22;12046;44.702;10.622;2023-04-24T08:34:59;20.50;99.90
23731;DHT22;12046;44.702;10.622;2023-04-24T08:37:25;20.60;99.90
23731;DHT22;12046;44.702;10.622;2023-04-24T08:39:54;20.70;99.90
23731;DHT22;12046;44.702;10.622;2023-04-24T08:42:21;20.80;99.90
23731;DHT22;12046;44.702;10.622;2023-04-24T08:44:48;20.90;99.90
23731;DHT22;12046;44.702;10.622;2023-04-24T08:47:18;21.00;99.90
23731;DHT22;12046;44.702;10.622;2023-04-24T08:49:48;21.10;99.90
23731;DHT22;12046;44.702;10.622;2023-04-24T08:52:15;21.20;99.90
23731;DHT22;12046;44.702;10.622;2023-04-24T08:54:42;21.40;99.90
23731;DHT22;12046;44.702;10.622;2023-04-24T08:57:09;21.60;99.90
23731;DHT22;12046;44.702;10.622;2023-04-24T08:59:38;21.70;99.90
23731;DHT22;12046;44.702;10.622;2023-04-24T09:02:04;21.80;99.90
23731;DHT22;12046;44.702;10.622;2023-04-24T09:04:30;21.80;99.90
23731;DHT22;12046;44.702;10.622;2023-04-24T09:06:58;21.80;99.90
23731;DHT22;12046;44.702;10.622;2023-04-24T09:09:25;21.80;99.90
23731;DHT22;12046;44.702;10.622;2023-04-24T09:11:52;21.80;99.80
23731;DHT22;12046;44.702;10.622;2023-04-24T09:14:20;21.80;99.80
23731;DHT22;12046;44.702;10.622;2023-04-24T09:16:47;21.80;99.90
23731;DHT22;12046;44.702;10.622;2023-04-24T09:19:13;21.80;99.70
23731;DHT22;12046;44.702;10.622;2023-04-24T09:21:39;21.80;99.50
23731;DHT22;12046;44.702;10.622;2023-04-24T09:24:15;21.80;99.40
23731;DHT22;12046;44.702;10.622;2023-04-24T09:26:43;21.80;99.30
23731;DHT22;12046;44.702;10.622;2023-04-24T09:29:14;21.90;99.30
23731;DHT22;12046;44.702;10.622;2023-04-24T09:31:41;21.90;99.00
23731;DHT22;12046;44.702;10.622;2023-04-24T09:34:07;22.00;98.90
23731;DHT22;12046;44.702;10.622;2023-04-24T09:36:37;22.20;98.80
23731;DHT22;12046;44.702;10.622;2023-04-24T09:39:08;22.30;98.30
23731;DHT22;12046;44.702;10.622;2023-04-24T09:41:44;22.50;98.20
23731;DHT22;12046;44.702;10.622;2023-04-24T09:46:41;22.70;97.80
23731;DHT22;12046;44.702;10.622;2023-04-24T09:49:13;22.80;97.70
23731;DHT22;12046;44.702;10.622;2023-04-24T09:51:40;22.90;97.50
23731;DHT22;12046;44.702;10.622;2023-04-24T09:54:20;23.00;97.30
23731;DHT22;12046;44.702;10.622;2023-04-24T09:56:48;23.10;97.10
23731;DHT22;12046;44.702;10.622;2023-04-24T09:59:19;23.20;96.80
23731;DHT22;12046;44.702;10.622;2023-04-24T10:01:45;23.20;96.60
23731;DHT22;12046;44.702;10.622;2023-04-24T10:04:31;23.30;96.50
23731;DHT22;12046;44.702;10.622;2023-04-24T10:06:57;23.50;96.50
23731;DHT22;12046;44.702;10.622;2023-04-24T10:09:25;23.60;96.20
23731;DHT22;12046;44.702;10.622;2023-04-24T10:11:53;23.70;96.00
23731;DHT22;12046;44.702;10.622;2023-04-24T10:14:22;23.80;96.30
23731;DHT22;12046;44.702;10.622;2023-04-24T10:16:49;23.90;95.90
23731;DHT22;12046;44.702;10.622;2023-04-24T10:19:16;24.00;95.70
23731;DHT22;12046;44.702;10.622;2023-04-24T10:21:44;24.00;95.50
23731;DHT22;12046;44.702;10.622;2023-04-24T10:24:14;23.90;95.40
23731;DHT22;12046;44.702;10.622;2023-04-24T10:26:41;23.80;95.30
23731;DHT22;12046;44.702;10.622;2023-04-24T10:29:07;23.80;95.20
23731;DHT22;12046;44.702;10.622;2023-04-24T10:31:36;23.70;95.10
23731;DHT22;12046;44.702;10.622;2023-04-24T10:34:04;23.70;95.00
23731;DHT22;12046;44.702;10.622;2023-04-24T10:36:33;23.70;94.70
23731;DHT22;12046;44.702;10.622;2023-04-24T10:39:02;23.60;94.80
23731;DHT22;12046;44.702;10.622;2023-04-24T10:41:30;23.60;94.90
23731;DHT22;12046;44.702;10.622;2023-04-24T10:44:13;23.60;94.90
23731;DHT22;12046;44.702;10.622;2023-04-24T10:46:43;23.70;94.90
23731;DHT22;12046;44.702;10.622;2023-04-24T10:49:09;23.70;94.80
23731;DHT22;12046;44.702;10.622;2023-04-24T10:51:45;23.80;94.70
23731;DHT22;12046;44.702;10.622;2023-04-24T10:54:44;23.90;94.60
23731;DHT22;12046;44.702;10.622;2023-04-24T11:02:40;24.30;94.30
23731;DHT22;12046;44.702;10.622;2023-04-24T11:05:15;24.40;94.10
23731;DHT22;12046;44.702;10.622;2023-04-24T11:08:11;24.40;93.80
23731;DHT22;12046;44.702;10.622;2023-04-24T11:19:08;24.80;92.80
23731;DHT22;12046;44.702;10.622;2023-04-24T11:21:46;24.90;92.30
23731;DHT22;12046;44.702;10.622;2023-04-24T11:27:05;24.90;91.90
23731;DHT22;12046;44.702;10.622;2023-04-24T11:29:48;24.90;91.60
23731;DHT22;12046;44.702;10.622;2023-04-24T11:32:18;25.00;91.30
23731;DHT22;12046;44.702;10.622;2023-04-24T11:34:59;25.00;91.10
23731;DHT22;12046;44.702;10.622;2023-04-24T11:37:36;25.10;90.80
23731;DHT22;12046;44.702;10.622;2023-04-24T11:40:04;25.10;90.80
23731;DHT22;12046;44.702;10.622;2023-04-24T11:42:37;25.10;90.90
23731;DHT22;12046;44.702;10.622;2023-04-24T11:45:08;25.10;90.70
23731;DHT22;12046;44.702;10.622;2023-04-24T11:47:34;25.20;90.70
23731;DHT22;12046;44.702;10.622;2023-04-24T11:50:00;25.30;90.60
23731;DHT22;12046;44.702;10.622;2023-04-24T11:52:30;25.40;90.50
23731;DHT22;12046;44.702;10.622;2023-04-24T11:54:56;25.50;90.30
23731;DHT22;12046;44.702;10.622;2023-04-24T11:57:24;25.60;89.50
23731;DHT22;12046;44.702;10.622;2023-04-24T11:59:53;25.60;88.80
23731;DHT22;12046;44.702;10.622;2023-04-24T12:02:23;25.60;88.80
23731;DHT22;12046;44.702;10.622;2023-04-24T12:04:48;25.60;89.00
23731;DHT22;12046;44.702;10.622;2023-04-24T12:07:14;25.60;88.80
23731;DHT22;12046;44.702;10.622;2023-04-24T12:12:13;25.70;87.50
23731;DHT22;12046;44.702;10.622;2023-04-24T12:15:06;25.80;87.00
23731;DHT22;12046;44.702;10.622;2023-04-24T12:17:30;25.70;87.10
23731;DHT22;12046;44.702;10.622;2023-04-24T12:19:58;25.80;86.10
23731;DHT22;12046;44.702;10.622;2023-04-24T12:22:25;25.80;85.60
23731;DHT22;12046;44.702;10.622;2023-04-24T12:24:58;25.80;85.80
23731;DHT22;12046;44.702;10.622;2023-04-24T12:27:24;25.80;86.00
23731;DHT22;12046;44.702;10.622;2023-04-24T12:29:57;25.90;86.30
23731;DHT22;12046;44.702;10.622;2023-04-24T12:32:24;25.90;86.20
23731;DHT22;12046;44.702;10.622;2023-04-24T12:34:51;26.00;85.00
23731;DHT22;12046;44.702;10.622;2023-04-24T12:37:17;26.10;84.70
23731;DHT22;12046;44.702;10.622;2023-04-24T12:40:03;26.10;84.50
23731;DHT22;12046;44.702;10.622;2023-04-24T12:42:30;26.20;84.00
23731;DHT22;12046;44.702;10.622;2023-04-24T12:45:04;26.20;83.20
23731;DHT22;12046;44.702;10.622;2023-04-24T12:47:34;26.20;83.50
23731;DHT22;12046;44.702;10.622;2023-04-24T12:50:00;26.20;83.70
23731;DHT22;12046;44.702;10.622;2023-04-24T12:52:28;26.20;83.40
23731;DHT22;12046;44.702;10.622;2023-04-24T12:54:58;26.20;82.80
23731;DHT22;12046;44.702;10.622;2023-04-24T12:57:25;26.30;82.50
23731;DHT22;12046;44.702;10.622;2023-04-24T12:59:54;26.30;82.10
23731;DHT22;12046;44.702;10.622;2023-04-24T13:02:21;26.20;82.20
23731;DHT22;12046;44.702;10.622;2023-04-24T13:04:48;26.20;82.00
23731;DHT22;12046;44.702;10.622;2023-04-24T13:07:14;26.20;82.00
23731;DHT22;12046;44.702;10.622;2023-04-24T13:09:41;26.20;81.30
23731;DHT22;12046;44.702;10.622;2023-04-24T13:12:08;26.30;81.20
23731;DHT22;12046;44.702;10.622;2023-04-24T13:14:34;26.40;80.50
23731;DHT22;12046;44.702;10.622;2023-04-24T13:16:59;26.40;80.30
23731;DHT22;12046;44.702;10.622;2023-04-24T13:19:28;26.30;80.40
23731;DHT22;12046;44.702;10.622;2023-04-24T13:21:55;26.30;80.60
23731;DHT22;12046;44.702;10.622;2023-04-24T13:24:25;26.30;80.60
23731;DHT22;12046;44.702;10.622;2023-04-24T13:26:52;26.40;80.70
23731;DHT22;12046;44.702;10.622;2023-04-24T13:29:18;26.40;80.80
23731;DHT22;12046;44.702;10.622;2023-04-24T13:31:44;26.40;79.90
23731;DHT22;12046;44.702;10.622;2023-04-24T13:34:11;26.30;79.60
23731;DHT22;12046;44.702;10.622;2023-04-24T13:36:37;26.10;79.80
23731;DHT22;12046;44.702;10.622;2023-04-24T13:39:03;26.00;80.10
23731;DHT22;12046;44.702;10.622;2023-04-24T13:41:30;25.90;80.40
23731;DHT22;12046;44.702;10.622;2023-04-24T13:43:56;25.80;80.70
23731;DHT22;12046;44.702;10.622;2023-04-24T13:46:22;25.80;80.90
23731;DHT22;12046;44.702;10.622;2023-04-24T13:48:48;25.80;80.70
23731;DHT22;12046;44.702;10.622;2023-04-24T13:51:20;25.90;80.30
23731;DHT22;12046;44.702;10.622;2023-04-24T13:53:45;25.90;80.20
23731;DHT22;12046;44.702;10.622;2023-04-24T13:56:11;25.90;80.30
23731;DHT22;12046;44.702;10.622;2023-04-24T13:58:39;26.00;80.30
23731;DHT22;12046;44.702;10.622;2023-04-24T14:01:05;26.10;80.20
23731;DHT22;12046;44.702;10.622;2023-04-24T14:03:32;26.20;80.20
23731;DHT22;12046;44.702;10.622;2023-04-24T14:06:01;26.20;79.20
23731;DHT22;12046;44.702;10.622;2023-04-24T14:08:30;26.20;79.40
23731;DHT22;12046;44.702;10.622;2023-04-24T14:10:55;26.20;79.50
23731;DHT22;12046;44.702;10.622;2023-04-24T14:13:24;26.20;79.70
23731;DHT22;12046;44.702;10.622;2023-04-24T14:15:51;26.00;79.20
23731;DHT22;12046;44.702;10.622;2023-04-24T14:18:18;25.90;79.30
23731;DHT22;12046;44.702;10.622;2023-04-24T14:20:44;25.60;79.60
23731;DHT22;12046;44.702;10.622;2023-04-24T14:23:10;25.30;80.20
23731;DHT22;12046;44.702;10.622;2023-04-24T14:25:36;25.20;80.70
23731;DHT22;12046;44.702;10.622;2023-04-24T14:28:02;25.10;81.40
23731;DHT22;12046;44.702;10.622;2023-04-24T14:30:27;24.90;81.60
23731;DHT22;12046;44.702;10.622;2023-04-24T14:32:56;24.90;81.70
23731;DHT22;12046;44.702;10.622;2023-04-24T14:35:21;24.70;81.50
23731;DHT22;12046;44.702;10.622;2023-04-24T14:37:48;24.70;81.50
23731;DHT22;12046;44.702;10.622;2023-04-24T14:40:17;24.60;81.70
23731;DHT22;12046;44.702;10.622;2023-04-24T14:42:43;24.50;82.00
23731;DHT22;12046;44.702;10.622;2023-04-24T14:45:09;24.40;82.20
23731;DHT22;12046;44.702;10.622;2023-04-24T14:47:36;24.30;82.30
23731;DHT22;12046;44.702;10.622;2023-04-24T14:50:02;24.30;82.60
23731;DHT22;12046;44.702;10.622;2023-04-24T14:52:29;24.30;82.70
23731;DHT22;12046;44.702;10.622;2023-04-24T14:54:54;24.30;83.10
23731;DHT22;12046;44.702;10.622;2023-04-24T14:57:20;24.20;81.50
23731;DHT22;12046;44.702;10.622;2023-04-24T14:59:46;24.20;77.30
23731;DHT22;12046;44.702;10.622;2023-04-24T15:02:15;24.10;74.20
23731;DHT22;12046;44.702;10.622;2023-04-24T15:04:41;24.10;72.50
23731;DHT22;12046;44.702;10.622;2023-04-24T15:07:06;24.10;71.00
23731;DHT22;12046;44.702;10.622;2023-04-24T15:09:32;24.10;70.40
23731;DHT22;12046;44.702;10.622;2023-04-24T15:11:58;24.00;70.90
23731;DHT22;12046;44.702;10.622;2023-04-24T15:14:24;24.00;71.10
23731;DHT22;12046;44.702;10.622;2023-04-24T15:16:49;23.90;70.40
23731;DHT22;12046;44.702;10.622;2023-04-24T15:19:18;23.90;69.30
23731;DHT22;12046;44.702;10.622;2023-04-24T15:21:44;23.80;67.90
23731;DHT22;12046;44.702;10.622;2023-04-24T15:24:10;23.80;68.40
23731;DHT22;12046;44.702;10.622;2023-04-24T15:26:36;23.80;67.00
23731;DHT22;12046;44.702;10.622;2023-04-24T15:29:02;23.70;65.90
23731;DHT22;12046;44.702;10.622;2023-04-24T15:31:27;23.70;66.10
23731;DHT22;12046;44.702;10.622;2023-04-24T15:33:53;23.50;66.40
23731;DHT22;12046;44.702;10.622;2023-04-24T15:36:19;23.40;66.50